sensor_id;sensor_type;location;lat;lon;timestamp;P1;durP1;ratioP1;P2;durP2;ratioP2
26822;SDS011;14852;51.910;8.878;2022-10-16T00:00:41;2.83;;;1.90;;
26822;SDS011;14852;51.910;8.878;2022-10-16T00:03:08;4.30;;;2.13;;
26822;SDS011;14852;51.910;8.878;2022-10-16T00:05:41;4.03;;;2.55;;
26822;SDS011;14852;51.910;8.878;2022-10-16T00:08:08;3.97;;;2.25;;
26822;SDS011;14852;51.910;8.878;2022-10-16T00:10:37;3.58;;;2.50;;
26822;SDS011;14852;51.910;8.878;2022-10-16T00:13:03;3.00;;;2.70;;
26822;SDS011;14852;51.910;8.878;2022-10-16T00:15:30;3.15;;;2.28;;
26822;SDS011;14852;51.910;8.878;2022-10-16T00:18:01;3.60;;;2.08;;
26822;SDS011;14852;51.910;8.878;2022-10-16T00:20:29;2.60;;;2.10;;
26822;SDS011;14852;51.910;8.878;2022-10-16T00:22:58;4.80;;;2.47;;
26822;SDS011;14852;51.910;8.878;2022-10-16T00:25:24;4.57;;;2.20;;
26822;SDS011;14852;51.910;8.878;2022-10-16T00:27:49;3.80;;;2.00;;
26822;SDS011;14852;51.910;8.878;2022-10-16T00:30:15;5.32;;;2.40;;
26822;SDS011;14852;51.910;8.878;2022-10-16T00:32:41;4.85;;;2.20;;
26822;SDS011;14852;51.910;8.878;2022-10-16T00:35:07;2.90;;;1.95;;
26822;SDS011;14852;51.910;8.878;2022-10-16T00:37:33;4.50;;;1.98;;
26822;SDS011;14852;51.910;8.878;2022-10-16T00:39:59;2.70;;;1.88;;
26822;SDS011;14852;51.910;8.878;2022-10-16T00:42:24;3.90;;;2.42;;
26822;SDS011;14852;51.910;8.878;2022-10-16T00:49:58;3.97;;;2.03;;
26822;SDS011;14852;51.910;8.878;2022-10-16T00:52:33;3.17;;;1.98;;
26822;SDS011;14852;51.910;8.878;2022-10-16T00:54:59;2.53;;;1.80;;
26822;SDS011;14852;51.910;8.878;2022-10-16T00:57:27;2.60;;;2.00;;
26822;SDS011;14852;51.910;8.878;2022-10-16T00:59:53;2.63;;;2.25;;
26822;SDS011;14852;51.910;8.878;2022-10-16T01:02:20;3.35;;;2.20;;
26822;SDS011;14852;51.910;8.878;2022-10-16T01:04:50;2.65;;;2.00;;
26822;SDS011;14852;51.910;8.878;2022-10-16T01:13:11;3.75;;;2.50;;
26822;SDS011;14852;51.910;8.878;2022-10-16T01:16:05;4.80;;;2.60;;
26822;SDS011;14852;51.910;8.878;2022-10-16T01:18:44;4.32;;;2.35;;
26822;SDS011;14852;51.910;8.878;2022-10-16T01:21:39;5.03;;;2.17;;
26822;SDS011;14852;51.910;8.878;2022-10-16T01:35:21;4.60;;;2.17;;
26822;SDS011;14852;51.910;8.878;2022-10-16T01:40:32;1.95;;;1.73;;
26822;SDS011;14852;51.910;8.878;2022-10-16T01:43:03;3.33;;;2.00;;
26822;SDS011;14852;51.910;8.878;2022-10-16T01:45:37;2.80;;;1.90;;
26822;SDS011;14852;51.910;8.878;2022-10-16T01:48:05;3.83;;;2.55;;
26822;SDS011;14852;51.910;8.878;2022-10-16T01:50:35;3.83;;;2.17;;
26822;SDS011;14852;51.910;8.878;2022-10-16T01:53:06;3.60;;;2.45;;
26822;SDS011;14852;51.910;8.878;2022-10-16T01:55:37;7.03;;;2.40;;
26822;SDS011;14852;51.910;8.878;2022-10-16T01:58:10;2.92;;;2.03;;
26822;SDS011;14852;51.910;8.878;2022-10-16T02:00:38;3.35;;;2.13;;
26822;SDS011;14852;51.910;8.878;2022-10-16T02:03:08;1.92;;;1.67;;
26822;SDS011;14852;51.910;8.878;2022-10-16T02:05:39;2.85;;;2.15;;
26822;SDS011;14852;51.910;8.878;2022-10-16T02:08:11;3.05;;;2.15;;
26822;SDS011;14852;51.910;8.878;2022-10-16T02:10:37;3.28;;;2.30;;
26822;SDS011;14852;51.910;8.878;2022-10-16T02:13:11;2.88;;;1.60;;
26822;SDS011;14852;51.910;8.878;2022-10-16T02:15:44;2.05;;;1.75;;
26822;SDS011;14852;51.910;8.878;2022-10-16T02:18:10;3.45;;;2.28;;
26822;SDS011;14852;51.910;8.878;2022-10-16T02:20:54;2.78;;;1.83;;
26822;SDS011;14852;51.910;8.878;2022-10-16T02:23:32;3.17;;;2.38;;
26822;SDS011;14852;51.910;8.878;2022-10-16T02:26:08;2.40;;;1.77;;
26822;SDS011;14852;51.910;8.878;2022-10-16T02:28:42;2.30;;;1.95;;
26822;SDS011;14852;51.910;8.878;2022-10-16T02:31:18;3.50;;;2.20;;
26822;SDS011;14852;51.910;8.878;2022-10-16T02:33:52;4.00;;;2.17;;
26822;SDS011;14852;51.910;8.878;2022-10-16T02:36:23;3.75;;;2.20;;
26822;SDS011;14852;51.910;8.878;2022-10-16T02:38:50;2.78;;;1.90;;
26822;SDS011;14852;51.910;8.878;2022-10-16T02:41:18;15.60;;;2.33;;
26822;SDS011;14852;51.910;8.878;2022-10-16T02:43:48;3.15;;;2.60;;
26822;SDS011;14852;51.910;8.878;2022-10-16T02:46:14;3.13;;;2.17;;
26822;SDS011;14852;51.910;8.878;2022-10-16T02:48:41;1.83;;;1.65;;
26822;SDS011;14852;51.910;8.878;2022-10-16T02:51:07;3.33;;;2.10;;
26822;SDS011;14852;51.910;8.878;2022-10-16T02:53:33;2.80;;;1.90;;
26822;SDS011;14852;51.910;8.878;2022-10-16T02:55:59;2.05;;;1.60;;
26822;SDS011;14852;51.910;8.878;2022-10-16T02:58:24;5.38;;;1.70;;
26822;SDS011;14852;51.910;8.878;2022-10-16T03:00:50;2.30;;;1.60;;
26822;SDS011;14852;51.910;8.878;2022-10-16T03:03:16;3.25;;;1.90;;
26822;SDS011;14852;51.910;8.878;2022-10-16T03:05:42;1.70;;;1.50;;
26822;SDS011;14852;51.910;8.878;2022-10-16T03:08:11;2.97;;;1.77;;
26822;SDS011;14852;51.910;8.878;2022-10-16T03:10:37;4.45;;;2.67;;
26822;SDS011;14852;51.910;8.878;2022-10-16T03:13:03;2.90;;;1.63;;
26822;SDS011;14852;51.910;8.878;2022-10-16T03:15:29;1.95;;;1.42;;
26822;SDS011;14852;51.910;8.878;2022-10-16T03:17:57;2.55;;;1.60;;
26822;SDS011;14852;51.910;8.878;2022-10-16T03:20:23;2.03;;;1.40;;
26822;SDS011;14852;51.910;8.878;2022-10-16T03:22:50;1.98;;;1.40;;
26822;SDS011;14852;51.910;8.878;2022-10-16T03:25:15;1.58;;;1.33;;
26822;SDS011;14852;51.910;8.878;2022-10-16T03:27:41;2.72;;;1.55;;
26822;SDS011;14852;51.910;8.878;2022-10-16T03:30:07;1.75;;;1.60;;
26822;SDS011;14852;51.910;8.878;2022-10-16T03:32:34;2.58;;;1.50;;
26822;SDS011;14852;51.910;8.878;2022-10-16T03:35:00;3.72;;;1.42;;
26822;SDS011;14852;51.910;8.878;2022-10-16T03:37:26;2.17;;;1.40;;
26822;SDS011;14852;51.910;8.878;2022-10-16T03:39:51;1.90;;;1.40;;
26822;SDS011;14852;51.910;8.878;2022-10-16T03:42:18;3.00;;;1.35;;
26822;SDS011;14852;51.910;8.878;2022-10-16T03:44:43;1.67;;;1.13;;
26822;SDS011;14852;51.910;8.878;2022-10-16T03:47:09;3.22;;;1.60;;
26822;SDS011;14852;51.910;8.878;2022-10-16T03:49:35;4.13;;;1.73;;
26822;SDS011;14852;51.910;8.878;2022-10-16T03:52:01;2.33;;;1.40;;
26822;SDS011;14852;51.910;8.878;2022-10-16T03:54:26;1.58;;;1.10;;
26822;SDS011;14852;51.910;8.878;2022-10-16T03:56:52;1.83;;;1.65;;
26822;SDS011;14852;51.910;8.878;2022-10-16T03:59:18;2.05;;;1.50;;
26822;SDS011;14852;51.910;8.878;2022-10-16T04:01:44;1.60;;;1.48;;
26822;SDS011;14852;51.910;8.878;2022-10-16T04:04:09;2.55;;;1.40;;
26822;SDS011;14852;51.910;8.878;2022-10-16T04:06:35;2.20;;;1.35;;
26822;SDS011;14852;51.910;8.878;2022-10-16T04:09:01;2.90;;;1.23;;
26822;SDS011;14852;51.910;8.878;2022-10-16T04:11:27;3.03;;;1.48;;
26822;SDS011;14852;51.910;8.878;2022-10-16T04:13:53;1.50;;;1.30;;
26822;SDS011;14852;51.910;8.878;2022-10-16T04:16:19;2.28;;;1.38;;
26822;SDS011;14852;51.910;8.878;2022-10-16T04:18:45;2.65;;;1.70;;
26822;SDS011;14852;51.910;8.878;2022-10-16T04:21:11;3.50;;;1.67;;
26822;SDS011;14852;51.910;8.878;2022-10-16T04:23:36;2.40;;;1.30;;
26822;SDS011;14852;51.910;8.878;2022-10-16T04:26:02;1.27;;;1.10;;
26822;SDS011;14852;51.910;8.878;2022-10-16T04:28:28;2.47;;;1.17;;
26822;SDS011;14852;51.910;8.878;2022-10-16T04:30:54;2.00;;;1.20;;
26822;SDS011;14852;51.910;8.878;2022-10-16T04:33:20;3.05;;;1.40;;
26822;SDS011;14852;51.910;8.878;2022-10-16T04:35:46;1.70;;;1.30;;
26822;SDS011;14852;51.910;8.878;2022-10-16T04:38:13;1.98;;;1.40;;
26822;SDS011;14852;51.910;8.878;2022-10-16T04:40:38;2.38;;;1.40;;
26822;SDS011;14852;51.910;8.878;2022-10-16T04:43:06;1.48;;;1.30;;
26822;SDS011;14852;51.910;8.878;2022-10-16T04:45:32;2.17;;;1.58;;
26822;SDS011;14852;51.910;8.878;2022-10-16T04:47:58;3.78;;;1.55;;
26822;SDS011;14852;51.910;8.878;2022-10-16T04:50:25;1.25;;;1.15;;
26822;SDS011;14852;51.910;8.878;2022-10-16T04:53:03;1.45;;;1.13;;
26822;SDS011;14852;51.910;8.878;2022-10-16T04:55:30;1.98;;;1.15;;
26822;SDS011;14852;51.910;8.878;2022-10-16T04:57:55;1.75;;;1.30;;
26822;SDS011;14852;51.910;8.878;2022-10-16T05:00:21;1.55;;;1.30;;
26822;SDS011;14852;51.910;8.878;2022-10-16T05:02:47;2.53;;;1.40;;
26822;SDS011;14852;51.910;8.878;2022-10-16T05:05:15;1.50;;;1.13;;
26822;SDS011;14852;51.910;8.878;2022-10-16T05:07:41;2.33;;;1.10;;
26822;SDS011;14852;51.910;8.878;2022-10-16T05:10:06;4.63;;;1.33;;
26822;SDS011;14852;51.910;8.878;2022-10-16T05:12:32;1.73;;;1.23;;
26822;SDS011;14852;51.910;8.878;2022-10-16T05:14:59;1.13;;;1.02;;
26822;SDS011;14852;51.910;8.878;2022-10-16T05:17:25;2.42;;;1.10;;
26822;SDS011;14852;51.910;8.878;2022-10-16T05:19:51;1.13;;;1.02;;
26822;SDS011;14852;51.910;8.878;2022-10-16T05:22:17;1.33;;;1.23;;
26822;SDS011;14852;51.910;8.878;2022-10-16T05:24:43;3.00;;;1.27;;
26822;SDS011;14852;51.910;8.878;2022-10-16T05:27:09;1.48;;;0.93;;
26822;SDS011;14852;51.910;8.878;2022-10-16T05:29:36;2.33;;;1.38;;
26822;SDS011;14852;51.910;8.878;2022-10-16T05:32:02;2.22;;;1.23;;
26822;SDS011;14852;51.910;8.878;2022-10-16T05:34:28;1.20;;;1.10;;
26822;SDS011;14852;51.910;8.878;2022-10-16T05:36:53;1.40;;;1.23;;
26822;SDS011;14852;51.910;8.878;2022-10-16T05:39:19;2.03;;;1.10;;
26822;SDS011;14852;51.910;8.878;2022-10-16T05:41:45;1.67;;;1.33;;
26822;SDS011;14852;51.910;8.878;2022-10-16T05:44:11;1.58;;;1.35;;
26822;SDS011;14852;51.910;8.878;2022-10-16T05:46:37;2.35;;;1.15;;
26822;SDS011;14852;51.910;8.878;2022-10-16T05:49:02;2.78;;;1.20;;
26822;SDS011;14852;51.910;8.878;2022-10-16T05:51:28;1.27;;;1.17;;
26822;SDS011;14852;51.910;8.878;2022-10-16T05:53:54;1.27;;;0.90;;
26822;SDS011;14852;51.910;8.878;2022-10-16T05:56:20;1.27;;;1.05;;
26822;SDS011;14852;51.910;8.878;2022-10-16T05:58:46;1.70;;;1.27;;
26822;SDS011;14852;51.910;8.878;2022-10-16T06:01:15;1.83;;;1.17;;
26822;SDS011;14852;51.910;8.878;2022-10-16T06:03:44;1.10;;;0.93;;
26822;SDS011;14852;51.910;8.878;2022-10-16T06:08:41;1.63;;;1.40;;
26822;SDS011;14852;51.910;8.878;2022-10-16T06:11:10;3.67;;;1.52;;
26822;SDS011;14852;51.910;8.878;2022-10-16T06:13:41;2.30;;;1.17;;
26822;SDS011;14852;51.910;8.878;2022-10-16T06:16:07;4.55;;;1.13;;
26822;SDS011;14852;51.910;8.878;2022-10-16T06:18:35;1.63;;;0.80;;
26822;SDS011;14852;51.910;8.878;2022-10-16T06:21:06;2.55;;;1.65;;
26822;SDS011;14852;51.910;8.878;2022-10-16T06:23:38;2.05;;;1.25;;
26822;SDS011;14852;51.910;8.878;2022-10-16T06:26:05;2.05;;;1.50;;
26822;SDS011;14852;51.910;8.878;2022-10-16T06:28:37;1.65;;;1.40;;
26822;SDS011;14852;51.910;8.878;2022-10-16T06:31:04;2.10;;;1.67;;
26822;SDS011;14852;51.910;8.878;2022-10-16T06:33:32;1.27;;;1.08;;
26822;SDS011;14852;51.910;8.878;2022-10-16T06:36:16;2.05;;;1.50;;
26822;SDS011;14852;51.910;8.878;2022-10-16T06:38:43;1.73;;;1.33;;
26822;SDS011;14852;51.910;8.878;2022-10-16T06:41:14;4.10;;;1.10;;
26822;SDS011;14852;51.910;8.878;2022-10-16T06:43:42;1.70;;;1.15;;
26822;SDS011;14852;51.910;8.878;2022-10-16T06:46:10;1.73;;;0.90;;
26822;SDS011;14852;51.910;8.878;2022-10-16T06:48:38;2.75;;;1.00;;
26822;SDS011;14852;51.910;8.878;2022-10-16T06:53:40;1.58;;;1.08;;
26822;SDS011;14852;51.910;8.878;2022-10-16T06:56:18;1.17;;;0.90;;
26822;SDS011;14852;51.910;8.878;2022-10-16T06:58:45;2.22;;;1.20;;
26822;SDS011;14852;51.910;8.878;2022-10-16T07:01:12;1.42;;;1.23;;
26822;SDS011;14852;51.910;8.878;2022-10-16T07:03:40;1.65;;;1.00;;
26822;SDS011;14852;51.910;8.878;2022-10-16T07:06:08;0.98;;;0.98;;
26822;SDS011;14852;51.910;8.878;2022-10-16T07:08:37;1.00;;;0.90;;
26822;SDS011;14852;51.910;8.878;2022-10-16T07:11:06;1.45;;;0.95;;
26822;SDS011;14852;51.910;8.878;2022-10-16T07:13:38;1.48;;;1.13;;
26822;SDS011;14852;51.910;8.878;2022-10-16T07:16:08;1.55;;;1.27;;
26822;SDS011;14852;51.910;8.878;2022-10-16T07:18:36;1.88;;;1.35;;
26822;SDS011;14852;51.910;8.878;2022-10-16T07:21:04;2.17;;;1.00;;
26822;SDS011;14852;51.910;8.878;2022-10-16T07:23:30;0.77;;;0.77;;
26822;SDS011;14852;51.910;8.878;2022-10-16T07:25:56;1.20;;;1.10;;
26822;SDS011;14852;51.910;8.878;2022-10-16T07:28:22;1.10;;;1.00;;
26822;SDS011;14852;51.910;8.878;2022-10-16T07:30:48;1.58;;;1.20;;
26822;SDS011;14852;51.910;8.878;2022-10-16T07:33:14;1.98;;;1.17;;
26822;SDS011;14852;51.910;8.878;2022-10-16T07:35:52;3.28;;;1.20;;
26822;SDS011;14852;51.910;8.878;2022-10-16T07:38:19;2.30;;;1.30;;
26822;SDS011;14852;51.910;8.878;2022-10-16T07:40:46;4.70;;;1.50;;
26822;SDS011;14852;51.910;8.878;2022-10-16T07:43:12;2.08;;;1.20;;
26822;SDS011;14852;51.910;8.878;2022-10-16T07:45:46;2.78;;;1.27;;
26822;SDS011;14852;51.910;8.878;2022-10-16T07:48:16;6.95;;;1.48;;
26822;SDS011;14852;51.910;8.878;2022-10-16T07:50:43;1.05;;;0.95;;
26822;SDS011;14852;51.910;8.878;2022-10-16T07:53:10;2.10;;;1.08;;
26822;SDS011;14852;51.910;8.878;2022-10-16T07:55:37;3.60;;;1.10;;
26822;SDS011;14852;51.910;8.878;2022-10-16T07:58:03;1.38;;;1.02;;
26822;SDS011;14852;51.910;8.878;2022-10-16T08:00:30;3.10;;;1.30;;
26822;SDS011;14852;51.910;8.878;2022-10-16T08:02:57;1.42;;;1.30;;
26822;SDS011;14852;51.910;8.878;2022-10-16T08:05:27;1.00;;;0.82;;
26822;SDS011;14852;51.910;8.878;2022-10-16T08:07:55;2.10;;;1.00;;
26822;SDS011;14852;51.910;8.878;2022-10-16T08:10:21;1.15;;;1.00;;
26822;SDS011;14852;51.910;8.878;2022-10-16T08:12:50;1.23;;;1.00;;
26822;SDS011;14852;51.910;8.878;2022-10-16T08:15:17;2.30;;;1.17;;
26822;SDS011;14852;51.910;8.878;2022-10-16T08:17:43;2.65;;;1.33;;
26822;SDS011;14852;51.910;8.878;2022-10-16T08:20:09;1.45;;;1.08;;
26822;SDS011;14852;51.910;8.878;2022-10-16T08:22:36;1.58;;;1.10;;
26822;SDS011;14852;51.910;8.878;2022-10-16T08:25:02;1.35;;;1.20;;
26822;SDS011;14852;51.910;8.878;2022-10-16T08:27:34;2.13;;;1.10;;
26822;SDS011;14852;51.910;8.878;2022-10-16T08:29:59;3.78;;;1.52;;
26822;SDS011;14852;51.910;8.878;2022-10-16T08:32:25;1.05;;;0.98;;
26822;SDS011;14852;51.910;8.878;2022-10-16T08:34:51;3.13;;;1.15;;
26822;SDS011;14852;51.910;8.878;2022-10-16T08:37:17;3.03;;;1.50;;
26822;SDS011;14852;51.910;8.878;2022-10-16T08:39:42;2.00;;;1.30;;
26822;SDS011;14852;51.910;8.878;2022-10-16T08:44:59;1.08;;;0.98;;
26822;SDS011;14852;51.910;8.878;2022-10-16T08:47:47;2.35;;;1.52;;
26822;SDS011;14852;51.910;8.878;2022-10-16T08:50:43;2.13;;;1.23;;
26822;SDS011;14852;51.910;8.878;2022-10-16T08:53:15;1.67;;;1.35;;
26822;SDS011;14852;51.910;8.878;2022-10-16T08:55:56;1.13;;;1.02;;
26822;SDS011;14852;51.910;8.878;2022-10-16T08:58:27;1.10;;;1.00;;
26822;SDS011;14852;51.910;8.878;2022-10-16T09:00:59;1.42;;;1.13;;
26822;SDS011;14852;51.910;8.878;2022-10-16T09:15:29;1.40;;;0.90;;
26822;SDS011;14852;51.910;8.878;2022-10-16T09:18:07;2.22;;;1.00;;
26822;SDS011;14852;51.910;8.878;2022-10-16T09:21:10;1.85;;;1.30;;
26822;SDS011;14852;51.910;8.878;2022-10-16T09:23:41;1.17;;;1.00;;
26822;SDS011;14852;51.910;8.878;2022-10-16T09:26:09;2.35;;;1.45;;
26822;SDS011;14852;51.910;8.878;2022-10-16T09:28:40;2.47;;;1.30;;
26822;SDS011;14852;51.910;8.878;2022-10-16T09:31:09;1.60;;;1.30;;
26822;SDS011;14852;51.910;8.878;2022-10-16T09:33:43;3.00;;;0.90;;
26822;SDS011;14852;51.910;8.878;2022-10-16T09:36:15;1.20;;;0.90;;
26822;SDS011;14852;51.910;8.878;2022-10-16T09:38:42;2.25;;;1.10;;
26822;SDS011;14852;51.910;8.878;2022-10-16T09:41:15;4.28;;;1.13;;
26822;SDS011;14852;51.910;8.878;2022-10-16T09:43:59;2.83;;;1.58;;
26822;SDS011;14852;51.910;8.878;2022-10-16T09:48:59;2.42;;;1.65;;
26822;SDS011;14852;51.910;8.878;2022-10-16T09:54:01;2.28;;;1.00;;
26822;SDS011;14852;51.910;8.878;2022-10-16T09:56:42;1.15;;;1.02;;
26822;SDS011;14852;51.910;8.878;2022-10-16T09:59:11;1.33;;;0.98;;
26822;SDS011;14852;51.910;8.878;2022-10-16T10:01:46;1.88;;;0.80;;
26822;SDS011;14852;51.910;8.878;2022-10-16T10:04:18;2.45;;;1.38;;
26822;SDS011;14852;51.910;8.878;2022-10-16T10:09:26;1.75;;;1.25;;
26822;SDS011;14852;51.910;8.878;2022-10-16T10:12:03;1.77;;;1.00;;
26822;SDS011;14852;51.910;8.878;2022-10-16T10:14:37;3.15;;;0.88;;
26822;SDS011;14852;51.910;8.878;2022-10-16T10:22:27;1.92;;;0.82;;
26822;SDS011;14852;51.910;8.878;2022-10-16T10:37:00;1.42;;;0.80;;
26822;SDS011;14852;51.910;8.878;2022-10-16T10:45:27;1.33;;;0.77;;
26822;SDS011;14852;51.910;8.878;2022-10-16T10:48:11;2.05;;;0.90;;
26822;SDS011;14852;51.910;8.878;2022-10-16T10:54:18;2.17;;;0.80;;
26822;SDS011;14852;51.910;8.878;2022-10-16T10:56:57;3.03;;;1.17;;
26822;SDS011;14852;51.910;8.878;2022-10-16T11:02:58;1.17;;;1.08;;
26822;SDS011;14852;51.910;8.878;2022-10-16T11:08:14;1.60;;;1.05;;
26822;SDS011;14852;51.910;8.878;2022-10-16T11:16:28;2.25;;;1.02;;
26822;SDS011;14852;51.910;8.878;2022-10-16T11:19:04;1.35;;;0.77;;
26822;SDS011;14852;51.910;8.878;2022-10-16T11:21:49;1.75;;;0.93;;
26822;SDS011;14852;51.910;8.878;2022-10-16T11:27:17;1.35;;;0.82;;
26822;SDS011;14852;51.910;8.878;2022-10-16T11:30:16;1.73;;;0.90;;
26822;SDS011;14852;51.910;8.878;2022-10-16T11:32:54;2.17;;;1.10;;
26822;SDS011;14852;51.910;8.878;2022-10-16T11:35:34;1.83;;;1.00;;
26822;SDS011;14852;51.910;8.878;2022-10-16T11:38:30;1.10;;;0.95;;
26822;SDS011;14852;51.910;8.878;2022-10-16T11:41:15;1.73;;;0.88;;
26822;SDS011;14852;51.910;8.878;2022-10-16T11:44:32;1.70;;;0.82;;
26822;SDS011;14852;51.910;8.878;2022-10-16T11:49:50;1.23;;;0.82;;
26822;SDS011;14852;51.910;8.878;2022-10-16T11:52:52;3.78;;;1.05;;
26822;SDS011;14852;51.910;8.878;2022-10-16T11:55:32;2.28;;;1.00;;
26822;SDS011;14852;51.910;8.878;2022-10-16T11:58:09;1.38;;;1.20;;
26822;SDS011;14852;51.910;8.878;2022-10-16T12:04:02;1.25;;;0.70;;
26822;SDS011;14852;51.910;8.878;2022-10-16T12:07:04;2.80;;;1.50;;
26822;SDS011;14852;51.910;8.878;2022-10-16T12:09:57;2.58;;;1.67;;
26822;SDS011;14852;51.910;8.878;2022-10-16T12:17:51;2.38;;;1.10;;
26822;SDS011;14852;51.910;8.878;2022-10-16T12:20:20;2.90;;;1.08;;
26822;SDS011;14852;51.910;8.878;2022-10-16T12:22:56;1.52;;;0.80;;
26822;SDS011;14852;51.910;8.878;2022-10-16T12:25:33;2.28;;;1.17;;
26822;SDS011;14852;51.910;8.878;2022-10-16T12:30:44;1.25;;;0.88;;
26822;SDS011;14852;51.910;8.878;2022-10-16T12:33:23;2.83;;;1.42;;
26822;SDS011;14852;51.910;8.878;2022-10-16T12:35:58;1.67;;;0.95;;
26822;SDS011;14852;51.910;8.878;2022-10-16T12:38:45;2.10;;;1.13;;
26822;SDS011;14852;51.910;8.878;2022-10-16T12:41:34;2.42;;;0.95;;
26822;SDS011;14852;51.910;8.878;2022-10-16T12:44:02;3.90;;;0.90;;
26822;SDS011;14852;51.910;8.878;2022-10-16T12:49:04;0.60;;;0.60;;
26822;SDS011;14852;51.910;8.878;2022-10-16T12:51:37;2.10;;;1.05;;
26822;SDS011;14852;51.910;8.878;2022-10-16T12:54:17;2.35;;;0.85;;
26822;SDS011;14852;51.910;8.878;2022-10-16T12:57:07;2.67;;;1.20;;
26822;SDS011;14852;51.910;8.878;2022-10-16T13:11:45;2.20;;;1.08;;
26822;SDS011;14852;51.910;8.878;2022-10-16T13:17:42;1.98;;;0.63;;
26822;SDS011;14852;51.910;8.878;2022-10-16T13:20:46;1.92;;;1.00;;
26822;SDS011;14852;51.910;8.878;2022-10-16T13:26:40;0.40;;;0.40;;
26822;SDS011;14852;51.910;8.878;2022-10-16T13:29:15;1.52;;;0.82;;
26822;SDS011;14852;51.910;8.878;2022-10-16T13:31:42;0.80;;;0.80;;
26822;SDS011;14852;51.910;8.878;2022-10-16T13:34:19;1.42;;;1.02;;
26822;SDS011;14852;51.910;8.878;2022-10-16T13:36:50;4.40;;;1.17;;
26822;SDS011;14852;51.910;8.878;2022-10-16T13:39:22;2.58;;;0.93;;
26822;SDS011;14852;51.910;8.878;2022-10-16T13:42:02;0.60;;;0.60;;
26822;SDS011;14852;51.910;8.878;2022-10-16T13:44:43;5.22;;;1.30;;
26822;SDS011;14852;51.910;8.878;2022-10-16T13:47:18;1.83;;;0.80;;
26822;SDS011;14852;51.910;8.878;2022-10-16T13:49:44;1.73;;;1.10;;
26822;SDS011;14852;51.910;8.878;2022-10-16T13:52:20;0.85;;;0.65;;
26822;SDS011;14852;51.910;8.878;2022-10-16T13:54:47;1.35;;;0.90;;
26822;SDS011;14852;51.910;8.878;2022-10-16T13:57:16;0.82;;;0.60;;
26822;SDS011;14852;51.910;8.878;2022-10-16T13:59:42;1.67;;;0.90;;
26822;SDS011;14852;51.910;8.878;2022-10-16T14:02:15;0.95;;;0.70;;
26822;SDS011;14852;51.910;8.878;2022-10-16T14:05:03;1.42;;;0.68;;
26822;SDS011;14852;51.910;8.878;2022-10-16T14:07:34;1.75;;;0.90;;
26822;SDS011;14852;51.910;8.878;2022-10-16T14:10:02;1.90;;;0.82;;
26822;SDS011;14852;51.910;8.878;2022-10-16T14:12:44;1.27;;;0.60;;
26822;SDS011;14852;51.910;8.878;2022-10-16T14:15:18;2.05;;;1.02;;
26822;SDS011;14852;51.910;8.878;2022-10-16T14:17:45;1.33;;;0.63;;
26822;SDS011;14852;51.910;8.878;2022-10-16T14:20:16;1.02;;;0.85;;
26822;SDS011;14852;51.910;8.878;2022-10-16T14:22:42;3.15;;;0.75;;
26822;SDS011;14852;51.910;8.878;2022-10-16T14:30:26;1.67;;;1.17;;
26822;SDS011;14852;51.910;8.878;2022-10-16T14:32:57;2.58;;;1.00;;
26822;SDS011;14852;51.910;8.878;2022-10-16T14:35:27;1.67;;;0.88;;
26822;SDS011;14852;51.910;8.878;2022-10-16T14:38:00;2.78;;;0.80;;
26822;SDS011;14852;51.910;8.878;2022-10-16T14:40:29;2.08;;;1.00;;
26822;SDS011;14852;51.910;8.878;2022-10-16T14:45:28;0.88;;;0.82;;
26822;SDS011;14852;51.910;8.878;2022-10-16T14:47:59;2.47;;;0.95;;
26822;SDS011;14852;51.910;8.878;2022-10-16T14:50:30;3.30;;;0.80;;
26822;SDS011;14852;51.910;8.878;2022-10-16T14:52:56;2.75;;;0.90;;
26822;SDS011;14852;51.910;8.878;2022-10-16T14:55:23;1.90;;;0.95;;
26822;SDS011;14852;51.910;8.878;2022-10-16T14:57:50;1.30;;;1.05;;
26822;SDS011;14852;51.910;8.878;2022-10-16T15:00:20;0.98;;;0.80;;
26822;SDS011;14852;51.910;8.878;2022-10-16T15:02:48;2.05;;;1.20;;
26822;SDS011;14852;51.910;8.878;2022-10-16T15:07:42;1.73;;;1.13;;
26822;SDS011;14852;51.910;8.878;2022-10-16T15:10:09;2.17;;;1.00;;
26822;SDS011;14852;51.910;8.878;2022-10-16T15:12:35;1.15;;;1.00;;
26822;SDS011;14852;51.910;8.878;2022-10-16T15:15:01;2.78;;;0.93;;
26822;SDS011;14852;51.910;8.878;2022-10-16T15:17:40;3.25;;;1.05;;
26822;SDS011;14852;51.910;8.878;2022-10-16T15:20:06;3.30;;;0.80;;
26822;SDS011;14852;51.910;8.878;2022-10-16T15:22:32;3.63;;;1.50;;
26822;SDS011;14852;51.910;8.878;2022-10-16T15:24:58;2.67;;;1.40;;
26822;SDS011;14852;51.910;8.878;2022-10-16T15:27:23;1.25;;;0.90;;
26822;SDS011;14852;51.910;8.878;2022-10-16T15:29:49;1.38;;;0.77;;
26822;SDS011;14852;51.910;8.878;2022-10-16T15:32:15;2.42;;;0.68;;
26822;SDS011;14852;51.910;8.878;2022-10-16T15:34:41;3.22;;;0.95;;
26822;SDS011;14852;51.910;8.878;2022-10-16T15:37:08;1.80;;;0.90;;
26822;SDS011;14852;51.910;8.878;2022-10-16T15:39:34;2.33;;;0.82;;
26822;SDS011;14852;51.910;8.878;2022-10-16T15:42:00;4.40;;;1.40;;
26822;SDS011;14852;51.910;8.878;2022-10-16T15:44:25;2.25;;;0.80;;
26822;SDS011;14852;51.910;8.878;2022-10-16T15:46:55;1.98;;;1.42;;
26822;SDS011;14852;51.910;8.878;2022-10-16T15:49:21;1.80;;;1.48;;
26822;SDS011;14852;51.910;8.878;2022-10-16T15:51:47;3.47;;;1.40;;
26822;SDS011;14852;51.910;8.878;2022-10-16T15:54:13;1.80;;;1.23;;
26822;SDS011;14852;51.910;8.878;2022-10-16T15:56:39;3.53;;;1.50;;
26822;SDS011;14852;51.910;8.878;2022-10-16T15:59:04;3.10;;;1.40;;
26822;SDS011;14852;51.910;8.878;2022-10-16T16:01:32;3.72;;;1.50;;
26822;SDS011;14852;51.910;8.878;2022-10-16T16:03:59;2.70;;;1.52;;
26822;SDS011;14852;51.910;8.878;2022-10-16T16:06:25;2.42;;;1.77;;
26822;SDS011;14852;51.910;8.878;2022-10-16T16:08:51;2.30;;;1.60;;
26822;SDS011;14852;51.910;8.878;2022-10-16T16:11:18;2.78;;;1.45;;
26822;SDS011;14852;51.910;8.878;2022-10-16T16:13:44;2.10;;;1.40;;
26822;SDS011;14852;51.910;8.878;2022-10-16T16:16:11;2.17;;;1.20;;
26822;SDS011;14852;51.910;8.878;2022-10-16T16:18:39;3.58;;;1.10;;
26822;SDS011;14852;51.910;8.878;2022-10-16T16:21:06;4.47;;;1.33;;
26822;SDS011;14852;51.910;8.878;2022-10-16T16:23:32;3.00;;;1.60;;
26822;SDS011;14852;51.910;8.878;2022-10-16T16:26:11;3.42;;;1.50;;
26822;SDS011;14852;51.910;8.878;2022-10-16T16:28:48;2.00;;;1.40;;
26822;SDS011;14852;51.910;8.878;2022-10-16T16:31:14;3.42;;;2.03;;
26822;SDS011;14852;51.910;8.878;2022-10-16T16:33:40;2.40;;;1.63;;
26822;SDS011;14852;51.910;8.878;2022-10-16T16:36:06;3.38;;;1.45;;
26822;SDS011;14852;51.910;8.878;2022-10-16T16:38:32;4.25;;;1.80;;
26822;SDS011;14852;51.910;8.878;2022-10-16T16:40:59;4.85;;;1.75;;
26822;SDS011;14852;51.910;8.878;2022-10-16T16:43:35;6.38;;;2.10;;
26822;SDS011;14852;51.910;8.878;2022-10-16T16:46:01;4.38;;;1.92;;
26822;SDS011;14852;51.910;8.878;2022-10-16T16:48:27;5.07;;;2.33;;
26822;SDS011;14852;51.910;8.878;2022-10-16T16:50:53;3.78;;;2.00;;
26822;SDS011;14852;51.910;8.878;2022-10-16T16:53:18;3.35;;;1.77;;
26822;SDS011;14852;51.910;8.878;2022-10-16T16:55:44;2.05;;;1.48;;
26822;SDS011;14852;51.910;8.878;2022-10-16T16:58:10;3.10;;;1.50;;
26822;SDS011;14852;51.910;8.878;2022-10-16T17:00:36;5.30;;;1.80;;
26822;SDS011;14852;51.910;8.878;2022-10-16T17:03:01;4.20;;;2.10;;
26822;SDS011;14852;51.910;8.878;2022-10-16T17:05:27;3.25;;;1.48;;
26822;SDS011;14852;51.910;8.878;2022-10-16T17:07:53;2.50;;;1.85;;
26822;SDS011;14852;51.910;8.878;2022-10-16T17:10:19;2.08;;;1.85;;
26822;SDS011;14852;51.910;8.878;2022-10-16T17:12:45;3.47;;;1.90;;
26822;SDS011;14852;51.910;8.878;2022-10-16T17:15:11;3.42;;;1.77;;
26822;SDS011;14852;51.910;8.878;2022-10-16T17:17:37;2.78;;;1.58;;
26822;SDS011;14852;51.910;8.878;2022-10-16T17:20:03;4.30;;;1.80;;
26822;SDS011;14852;51.910;8.878;2022-10-16T17:22:29;3.30;;;1.67;;
26822;SDS011;14852;51.910;8.878;2022-10-16T17:24:54;2.88;;;1.90;;